createdAt,value
2019-05-01T00:02:25.890Z,70.73
2019-05-01T00:04:58.506Z,71.37
2019-05-01T00:07:31.237Z,69.20
2019-05-01T00:10:04.940Z,72.63
2019-05-01T00:12:34.638Z,70.53
2019-05-01T00:15:05.496Z,67.35
2019-05-01T00:17:35.882Z,69.87
2019-05-01T00:20:05.585Z,73.87
2019-05-01T00:22:34.266Z,68.25
2019-05-01T00:25:03.334Z,68.53
2019-05-01T00:27:34.554Z,73.20
2019-05-01T00:30:05.411Z,73.20
2019-05-01T00:32:36.762Z,71.92
2019-05-01T00:35:06.874Z,73.00
2019-05-01T00:37:35.347Z,70.40
2019-05-01T00:40:05.974Z,75.50
2019-05-01T00:42:34.852Z,73.33
2019-05-01T00:45:05.201Z,74.17
2019-05-01T00:47:33.672Z,80.63
2019-05-01T00:50:09.226Z,75.23
2019-05-01T00:52:37.803Z,75.53
2019-05-01T00:55:08.348Z,78.43
2019-05-01T00:57:38.480Z,79.03
2019-05-01T01:00:25.174Z,76.60
2019-05-01T01:02:58.674Z,75.77
2019-05-01T01:05:30.233Z,82.33
2019-05-01T01:08:02.317Z,77.63
2019-05-01T01:10:30.775Z,81.13
2019-05-01T01:12:59.291Z,85.60
2019-05-01T01:15:28.904Z,82.00
2019-05-01T01:17:57.474Z,79.90
2019-05-01T01:20:26.033Z,82.40
2019-05-01T01:22:54.741Z,75.97
2019-05-01T01:25:23.512Z,83.50
2019-05-01T01:27:52.043Z,79.53
2019-05-01T01:30:22.630Z,78.57
2019-05-01T01:32:51.185Z,78.47
2019-05-01T01:35:21.121Z,81.57
2019-05-01T01:37:50.693Z,81.10
2019-05-01T01:40:21.027Z,82.08
2019-05-01T01:42:52.688Z,81.33
2019-05-01T01:45:29.025Z,81.28
2019-05-01T01:48:11.587Z,77.37
2019-05-01T01:51:11.171Z,79.95
2019-05-01T01:53:41.733Z,77.37
2019-05-01T01:56:10.291Z,81.13
2019-05-01T01:58:40.872Z,87.40
2019-05-01T02:01:27.083Z,84.30
2019-05-01T02:03:59.585Z,82.13
2019-05-01T02:06:30.141Z,85.00
2019-05-01T02:08:58.765Z,82.10
2019-05-01T02:11:31.346Z,84.93
2019-05-01T02:14:03.046Z,83.83
2019-05-01T02:16:31.589Z,82.70
2019-05-01T02:19:00.249Z,84.97
2019-05-01T02:21:28.947Z,88.07
2019-05-01T02:24:01.210Z,87.40
2019-05-01T02:26:43.551Z,87.43
2019-05-01T02:29:15.843Z,81.60
2019-05-01T02:31:52.595Z,79.20
2019-05-01T02:34:43.862Z,86.95
2019-05-01T02:37:15.529Z,90.80
2019-05-01T02:39:45.892Z,93.97
2019-05-01T02:42:15.904Z,84.63
2019-05-01T02:44:47.533Z,80.97
2019-05-01T02:47:26.226Z,84.37
2019-05-01T02:50:06.883Z,90.97
2019-05-01T02:52:38.110Z,94.20
2019-05-01T02:55:11.433Z,95.50
2019-05-01T02:57:41.552Z,91.63
2019-05-01T03:00:12.342Z,82.63
2019-05-01T03:02:41.227Z,84.27
2019-05-01T03:05:11.106Z,82.80
2019-05-01T03:07:45.170Z,84.07
2019-05-01T03:10:16.324Z,80.07
2019-05-01T03:12:48.801Z,82.37
2019-05-01T03:15:20.501Z,86.53
2019-05-01T03:18:10.130Z,78.40
2019-05-01T03:20:41.015Z,79.10
2019-05-01T03:23:14.946Z,77.40
2019-05-01T03:25:43.959Z,76.77
2019-05-01T03:28:13.420Z,69.42
2019-05-01T03:30:43.682Z,82.03
2019-05-01T03:33:12.648Z,78.70
2019-05-01T03:35:43.552Z,85.17
2019-05-01T03:38:12.625Z,83.22
2019-05-01T03:40:42.327Z,78.00
2019-05-01T03:43:12.264Z,84.73
2019-05-01T03:45:41.575Z,82.27
2019-05-01T03:48:10.346Z,78.60
2019-05-01T03:50:40.191Z,86.70
2019-05-01T03:53:10.216Z,91.77
2019-05-01T03:55:39.093Z,91.37
2019-05-01T03:58:07.945Z,86.30
2019-05-01T04:00:41.218Z,90.60
2019-05-01T04:03:30.152Z,89.40
2019-05-01T04:05:58.848Z,82.53
2019-05-01T04:08:28.007Z,90.37
2019-05-01T04:10:58.043Z,86.70
2019-05-01T04:13:26.851Z,85.13
2019-05-01T04:15:56.697Z,85.17
2019-05-01T04:18:27.760Z,83.00
2019-05-01T04:20:56.608Z,76.63
2019-05-01T04:23:25.236Z,84.47
2019-05-01T04:25:56.566Z,82.10
2019-05-01T04:28:44.381Z,83.57
2019-05-01T04:31:23.829Z,77.53
2019-05-01T04:33:55.473Z,80.87
2019-05-01T04:36:34.609Z,80.30
2019-05-01T04:39:05.638Z,81.00
2019-05-01T04:41:35.210Z,85.35
2019-05-01T04:44:05.071Z,92.17
2019-05-01T04:46:35.743Z,91.12
2019-05-01T04:49:04.644Z,101.13
2019-05-01T04:51:33.706Z,107.63
2019-05-01T04:54:05.157Z,103.58
2019-05-01T04:56:37.867Z,92.73
2019-05-01T04:59:06.674Z,108.80
2019-05-01T05:01:51.917Z,101.33
2019-05-01T05:04:22.195Z,98.63
2019-05-01T05:06:53.182Z,95.00
2019-05-01T05:09:41.787Z,85.33
2019-05-01T05:12:16.361Z,82.67
2019-05-01T05:15:03.038Z,85.23
2019-05-01T05:17:34.729Z,83.87
2019-05-01T05:20:04.928Z,82.80
2019-05-01T05:22:33.973Z,81.23
2019-05-01T05:25:02.609Z,89.70
2019-05-01T05:27:35.647Z,71.28
2019-05-01T05:30:05.108Z,74.90
2019-05-01T05:32:38.094Z,96.00
2019-05-01T05:35:07.878Z,83.27
2019-05-01T05:37:56.923Z,85.23
2019-05-01T05:40:34.096Z,81.33
2019-05-01T05:43:03.772Z,122.58
2019-05-01T05:45:34.051Z,83.15
2019-05-01T05:48:03.544Z,76.22
2019-05-01T05:50:48.654Z,76.80
2019-05-01T05:53:23.005Z,88.73
2019-05-01T05:55:55.611Z,67.10
2019-05-01T05:58:27.159Z,70.30
2019-05-01T06:01:07.005Z,59.43
2019-05-01T06:03:58.310Z,61.87
2019-05-01T06:06:30.652Z,61.67
2019-05-01T06:09:01.923Z,57.67
2019-05-01T06:11:38.034Z,58.70
2019-05-01T06:14:14.179Z,51.87
2019-05-01T06:16:59.709Z,57.90
2019-05-01T06:19:30.990Z,57.55
2019-05-01T06:22:17.243Z,48.90
2019-05-01T06:25:04.078Z,47.43
2019-05-01T06:27:33.409Z,55.30
2019-05-01T06:30:06.674Z,56.37
2019-05-01T06:32:34.775Z,50.47
2019-05-01T06:35:04.629Z,48.00
2019-05-01T06:37:51.051Z,52.23
2019-05-01T06:40:22.528Z,45.93
2019-05-01T06:42:53.193Z,48.87
2019-05-01T06:45:23.466Z,42.23
2019-05-01T06:47:54.531Z,44.53
2019-05-01T06:50:24.614Z,41.13
2019-05-01T06:52:53.302Z,46.70
2019-05-01T06:55:22.525Z,44.80
2019-05-01T06:57:52.982Z,44.63
2019-05-01T07:00:21.602Z,45.10
2019-05-01T07:02:54.872Z,45.60
2019-05-01T07:05:24.584Z,48.10
2019-05-01T07:07:55.525Z,48.77
2019-05-01T07:10:31.767Z,39.03
2019-05-01T07:12:59.871Z,42.40
2019-05-01T07:15:28.698Z,38.37
2019-05-01T07:17:58.549Z,41.67
2019-05-01T07:20:47.231Z,38.97
2019-05-01T07:23:17.346Z,44.00
2019-05-01T07:25:48.584Z,42.33
2019-05-01T07:28:17.586Z,40.87
2019-05-01T07:30:49.885Z,42.10
2019-05-01T07:33:18.258Z,40.97
2019-05-01T07:35:50.360Z,41.23
2019-05-01T07:38:19.354Z,41.23
2019-05-01T07:40:49.618Z,41.90
2019-05-01T07:43:23.909Z,39.93
2019-05-01T07:46:02.328Z,40.83
2019-05-01T07:48:35.977Z,38.40
2019-05-01T07:51:07.016Z,35.90
2019-05-01T07:53:36.116Z,37.90
2019-05-01T07:56:06.412Z,41.10
2019-05-01T07:58:35.338Z,37.47
2019-05-01T08:01:18.329Z,40.57
2019-05-01T08:03:49.242Z,36.93
2019-05-01T08:06:21.496Z,34.43
2019-05-01T08:08:52.807Z,39.20
2019-05-01T08:11:22.287Z,41.77
2019-05-01T08:13:50.759Z,37.80
2019-05-01T08:16:21.051Z,37.70
2019-05-01T08:18:51.245Z,36.60
2019-05-01T08:21:26.152Z,39.67
2019-05-01T08:23:51.765Z,42.60
2019-05-01T08:26:20.253Z,38.73
2019-05-01T08:29:02.914Z,37.90
2019-05-01T08:31:42.574Z,37.50
2019-05-01T08:34:30.581Z,39.63
2019-05-01T08:36:59.086Z,41.53
2019-05-01T08:39:28.437Z,40.15
2019-05-01T08:42:03.108Z,37.43
2019-05-01T08:44:33.016Z,35.60
2019-05-01T08:47:05.653Z,37.23
2019-05-01T08:49:42.244Z,38.30
2019-05-01T08:52:12.862Z,42.95
2019-05-01T08:54:42.407Z,37.73
2019-05-01T08:57:10.884Z,38.63
2019-05-01T08:59:39.559Z,39.23
2019-05-01T09:02:09.744Z,42.20
2019-05-01T09:04:39.731Z,40.27
2019-05-01T09:07:08.405Z,40.75
2019-05-01T09:09:39.742Z,37.53
2019-05-01T09:12:11.730Z,41.93
2019-05-01T09:14:37.488Z,40.97
2019-05-01T09:17:06.825Z,46.20
2019-05-01T09:19:35.297Z,39.40
2019-05-01T09:22:03.882Z,39.93
2019-05-01T09:24:32.417Z,40.53
2019-05-01T09:27:11.655Z,42.03
2019-05-01T09:29:46.802Z,44.53
2019-05-01T09:32:14.783Z,40.27
2019-05-01T09:34:43.615Z,46.97
2019-05-01T09:37:12.206Z,42.50
2019-05-01T09:39:47.305Z,41.00
2019-05-01T09:42:24.090Z,43.23
2019-05-01T09:44:48.736Z,38.10
2019-05-01T09:47:18.591Z,42.67
2019-05-01T09:49:48.836Z,46.43
2019-05-01T09:52:23.393Z,50.60
2019-05-01T09:54:56.252Z,42.83
2019-05-01T09:57:24.715Z,43.63
2019-05-01T09:59:54.004Z,42.37
2019-05-01T10:02:23.662Z,42.50
2019-05-01T10:04:55.080Z,44.10
2019-05-01T10:07:28.409Z,42.17
2019-05-01T10:09:54.029Z,45.30
2019-05-01T10:12:22.708Z,45.63
2019-05-01T10:14:51.224Z,48.47
2019-05-01T10:17:19.708Z,50.10
2019-05-01T10:19:50.158Z,43.53
2019-05-01T10:22:19.935Z,46.63
2019-05-01T10:24:48.398Z,46.57
2019-05-01T10:27:18.512Z,45.10
2019-05-01T10:30:04.840Z,48.40
2019-05-01T10:32:35.021Z,48.00
2019-05-01T10:35:06.920Z,46.85
2019-05-01T10:37:35.538Z,50.87
2019-05-01T10:40:05.813Z,47.80
2019-05-01T10:42:34.618Z,46.25
2019-05-01T10:45:05.669Z,47.67
2019-05-01T10:47:37.115Z,44.83
2019-05-01T10:50:07.135Z,49.23
2019-05-01T10:52:35.713Z,46.80
2019-05-01T10:55:06.008Z,48.73
2019-05-01T10:57:40.472Z,46.50
2019-05-01T11:00:10.768Z,44.43
2019-05-01T11:02:39.643Z,46.07
2019-05-01T11:05:10.284Z,48.60
2019-05-01T11:07:38.942Z,43.27
2019-05-01T11:10:11.970Z,47.90
2019-05-01T11:12:40.452Z,49.53
2019-05-01T11:15:10.450Z,44.97
2019-05-01T11:17:38.918Z,44.37
2019-05-01T11:20:08.402Z,46.10
2019-05-01T11:22:36.904Z,45.13
2019-05-01T11:25:07.397Z,48.20
2019-05-01T11:27:35.939Z,47.70
2019-05-01T11:30:07.759Z,44.88
2019-05-01T11:32:40.586Z,48.02
2019-05-01T11:35:27.281Z,43.28
2019-05-01T11:38:09.298Z,48.57
2019-05-01T11:40:43.122Z,47.70
2019-05-01T11:43:14.012Z,46.60
2019-05-01T11:45:42.615Z,49.47
2019-05-01T11:48:11.133Z,48.08
2019-05-01T11:50:39.660Z,45.52
2019-05-01T11:53:08.214Z,48.30
2019-05-01T11:55:37.855Z,45.57
2019-05-01T11:58:06.401Z,46.70
2019-05-01T12:00:36.413Z,45.33
2019-05-01T12:03:05.188Z,50.00
2019-05-01T12:05:34.714Z,49.97
2019-05-01T12:08:03.258Z,47.97
2019-05-01T12:10:31.814Z,48.00
2019-05-01T12:13:00.328Z,51.23
2019-05-01T12:15:30.094Z,50.80
2019-05-01T12:17:58.763Z,46.33
2019-05-01T12:20:27.415Z,47.87
2019-05-01T12:22:56.901Z,48.80
2019-05-01T12:25:28.014Z,48.53
2019-05-01T12:27:56.525Z,49.95
2019-05-01T12:30:26.401Z,49.03
2019-05-01T12:32:54.947Z,50.13
2019-05-01T12:35:23.537Z,53.07
2019-05-01T12:37:55.395Z,48.70
2019-05-01T12:40:25.175Z,50.23
2019-05-01T12:42:53.753Z,49.83
2019-05-01T12:45:25.513Z,49.53
2019-05-01T12:47:57.550Z,55.20
2019-05-01T12:50:26.439Z,47.47
2019-05-01T12:52:59.959Z,44.73
2019-05-01T12:55:39.269Z,48.50
2019-05-01T12:58:07.745Z,56.70
2019-05-01T13:00:51.012Z,47.40
2019-05-01T13:03:20.372Z,46.17
2019-05-01T13:05:48.987Z,46.23
2019-05-01T13:08:20.637Z,45.70
2019-05-01T13:10:50.664Z,46.07
2019-05-01T13:13:22.891Z,48.95
2019-05-01T13:15:51.396Z,47.13
2019-05-01T13:18:20.321Z,45.50
2019-05-01T13:20:48.853Z,45.03
2019-05-01T13:23:18.839Z,41.53
2019-05-01T13:25:48.109Z,46.60
2019-05-01T13:28:29.969Z,50.25
2019-05-01T13:31:17.891Z,46.90
2019-05-01T13:33:47.377Z,48.40
2019-05-01T13:36:17.143Z,49.13
2019-05-01T13:38:45.815Z,50.57
2019-05-01T13:41:16.304Z,46.90
2019-05-01T13:43:45.225Z,47.97
2019-05-01T13:46:15.450Z,52.40
2019-05-01T13:48:44.030Z,45.70
2019-05-01T13:51:18.561Z,42.70
2019-05-01T13:53:47.034Z,46.67
2019-05-01T13:56:16.605Z,45.47
2019-05-01T13:58:46.626Z,44.63
2019-05-01T14:01:16.466Z,44.63
2019-05-01T14:03:45.018Z,45.63
2019-05-01T14:06:15.122Z,48.33
2019-05-01T14:08:43.650Z,44.80
2019-05-01T14:11:12.128Z,45.90
2019-05-01T14:13:43.504Z,45.33
2019-05-01T14:16:14.363Z,43.37
2019-05-01T14:18:42.192Z,43.95
2019-05-01T14:21:24.056Z,48.33
2019-05-01T14:23:54.266Z,44.97
2019-05-01T14:26:22.800Z,47.77
2019-05-01T14:28:51.440Z,43.50
2019-05-01T14:31:20.168Z,41.63
2019-05-01T14:33:49.986Z,41.90
2019-05-01T14:36:19.430Z,43.17
2019-05-01T14:38:47.954Z,43.00
2019-05-01T14:41:16.435Z,47.57
2019-05-01T14:43:45.020Z,45.45
2019-05-01T14:46:14.675Z,43.83
2019-05-01T14:48:43.172Z,45.57
2019-05-01T14:51:13.278Z,42.63
2019-05-01T14:53:42.764Z,46.67
2019-05-01T14:56:11.416Z,45.23
2019-05-01T14:58:45.084Z,47.60
2019-05-01T15:01:13.616Z,44.08
2019-05-01T15:03:45.315Z,47.33
2019-05-01T15:06:13.832Z,43.93
2019-05-01T15:08:42.326Z,43.95
2019-05-01T15:11:10.790Z,46.17
2019-05-01T15:13:43.485Z,44.85
2019-05-01T15:16:16.428Z,44.83
2019-05-01T15:18:46.531Z,46.30
2019-05-01T15:21:16.343Z,44.80
2019-05-01T15:23:53.305Z,46.77
2019-05-01T15:26:15.000Z,49.67
2019-05-01T15:28:43.505Z,44.05
2019-05-01T15:31:13.128Z,49.60
2019-05-01T15:33:45.758Z,51.60
2019-05-01T15:36:14.360Z,51.35
2019-05-01T15:38:45.682Z,50.03
2019-05-01T15:41:22.226Z,50.57
2019-05-01T15:44:04.400Z,54.20
2019-05-01T15:46:36.114Z,54.30
2019-05-01T15:49:08.968Z,52.43
2019-05-01T15:51:38.496Z,55.57
2019-05-01T15:54:06.977Z,54.40
2019-05-01T15:56:35.517Z,57.03
2019-05-01T15:59:05.905Z,55.38
2019-05-01T16:01:34.451Z,60.83
2019-05-01T16:04:04.048Z,57.17
2019-05-01T16:06:32.619Z,60.20
2019-05-01T16:09:05.094Z,61.35
2019-05-01T16:11:51.561Z,58.65
2019-05-01T16:14:23.270Z,60.73
2019-05-01T16:16:54.919Z,63.40
2019-05-01T16:19:23.505Z,67.10
2019-05-01T16:21:55.029Z,65.60
2019-05-01T16:24:26.595Z,66.03
2019-05-01T16:26:55.111Z,68.60
2019-05-01T16:29:25.886Z,75.50
2019-05-01T16:31:55.591Z,70.13
2019-05-01T16:34:24.117Z,76.97
2019-05-01T16:36:54.235Z,72.70
2019-05-01T16:39:37.043Z,72.30
2019-05-01T16:42:06.643Z,74.37
2019-05-01T16:44:38.197Z,81.57
2019-05-01T16:47:06.659Z,79.58
2019-05-01T16:49:38.181Z,76.70
2019-05-01T16:52:09.065Z,89.27
2019-05-01T16:54:37.558Z,84.83
2019-05-01T16:57:06.681Z,87.33
2019-05-01T16:59:35.183Z,87.70
2019-05-01T17:02:07.246Z,84.40
2019-05-01T17:04:41.873Z,86.87
2019-05-01T17:07:15.048Z,80.47
2019-05-01T17:09:50.999Z,85.13
2019-05-01T17:12:21.190Z,83.87
2019-05-01T17:14:57.209Z,85.10
2019-05-01T17:17:31.296Z,82.40
2019-05-01T17:19:59.755Z,84.97
2019-05-01T17:22:29.792Z,80.30
2019-05-01T17:24:58.372Z,84.03
2019-05-01T17:27:28.452Z,80.03
2019-05-01T17:29:57.120Z,79.60
2019-05-01T17:32:26.236Z,85.10
2019-05-01T17:34:54.726Z,83.03
2019-05-01T17:37:23.253Z,80.38
2019-05-01T17:39:51.728Z,81.77
2019-05-01T17:42:20.271Z,84.70
2019-05-01T17:44:50.334Z,85.27
2019-05-01T17:47:22.534Z,81.30
2019-05-01T17:49:50.663Z,84.07
2019-05-01T17:52:19.394Z,79.43
2019-05-01T17:54:48.007Z,81.17
2019-05-01T17:57:16.470Z,74.70
2019-05-01T17:59:48.107Z,72.03
2019-05-01T18:02:25.186Z,71.23
2019-05-01T18:05:05.065Z,62.07
2019-05-01T18:07:34.980Z,61.07
2019-05-01T18:10:08.974Z,57.57
2019-05-01T18:12:37.444Z,49.50
2019-05-01T18:15:07.281Z,53.97
2019-05-01T18:17:35.846Z,56.87
2019-05-01T18:20:05.619Z,51.55
2019-05-01T18:22:54.435Z,50.10
2019-05-01T18:25:28.192Z,53.97
2019-05-01T18:27:59.458Z,46.90
2019-05-01T18:30:30.909Z,49.83
2019-05-01T18:33:02.167Z,51.18
2019-05-01T18:35:31.772Z,49.97
2019-05-01T18:38:15.280Z,52.37
2019-05-01T18:40:51.106Z,48.23
2019-05-01T18:43:19.689Z,49.63
2019-05-01T18:45:50.803Z,45.87
2019-05-01T18:48:20.168Z,45.53
2019-05-01T18:50:54.866Z,45.47
2019-05-01T18:53:20.767Z,45.20
2019-05-01T18:55:49.450Z,44.10
2019-05-01T18:58:22.338Z,39.07
2019-05-01T19:00:51.098Z,43.43
2019-05-01T19:03:22.341Z,47.60
2019-05-01T19:05:51.166Z,41.37
2019-05-01T19:08:22.116Z,39.73
2019-05-01T19:10:50.582Z,47.17
2019-05-01T19:13:21.555Z,39.87
2019-05-01T19:15:51.124Z,43.03
2019-05-01T19:18:21.154Z,40.73
2019-05-01T19:20:59.387Z,42.27
2019-05-01T19:23:27.619Z,41.70
2019-05-01T19:25:56.274Z,41.70
2019-05-01T19:28:22.563Z,43.13
2019-05-01T19:30:56.628Z,41.30
2019-05-01T19:33:24.463Z,40.23
2019-05-01T19:35:53.003Z,45.77
2019-05-01T19:38:22.253Z,44.97
2019-05-01T19:40:53.722Z,43.70
2019-05-01T19:43:24.814Z,39.70
2019-05-01T19:45:53.808Z,42.63
2019-05-01T19:48:22.640Z,44.05
2019-05-01T19:50:51.116Z,46.07
2019-05-01T19:53:19.738Z,43.47
2019-05-01T19:55:48.589Z,47.00
2019-05-01T19:58:18.148Z,43.77
2019-05-01T20:00:49.734Z,44.07
2019-05-01T20:03:18.701Z,45.20
2019-05-01T20:05:48.757Z,47.87
2019-05-01T20:08:38.153Z,42.13
2019-05-01T20:11:09.553Z,42.13
2019-05-01T20:13:40.140Z,47.00
2019-05-01T20:16:12.231Z,41.53
2019-05-01T20:18:41.879Z,44.90
2019-05-01T20:21:10.370Z,41.30
2019-05-01T20:23:39.073Z,44.70
2019-05-01T20:26:07.601Z,43.13
2019-05-01T20:28:37.354Z,48.58
2019-05-01T20:31:06.316Z,42.30
2019-05-01T20:33:38.643Z,41.03
2019-05-01T20:36:06.609Z,44.70
2019-05-01T20:38:35.265Z,45.28
2019-05-01T20:41:03.847Z,43.63
2019-05-01T20:43:33.613Z,41.43
2019-05-01T20:46:02.694Z,39.30
2019-05-01T20:48:31.261Z,45.83
2019-05-01T20:51:02.662Z,39.70
2019-05-01T20:53:33.316Z,45.83
2019-05-01T20:56:09.469Z,46.10
2019-05-01T20:58:38.020Z,45.10
2019-05-01T21:01:08.272Z,42.30
2019-05-01T21:03:40.277Z,41.87
2019-05-01T21:06:11.710Z,45.70
2019-05-01T21:08:43.364Z,46.73
2019-05-01T21:11:15.085Z,48.63
2019-05-01T21:13:43.584Z,48.20
2019-05-01T21:16:12.066Z,49.97
2019-05-01T21:18:40.524Z,47.83
2019-05-01T21:21:09.013Z,49.17
2019-05-01T21:23:39.124Z,52.53
2019-05-01T21:26:07.594Z,49.10
2019-05-01T21:28:38.850Z,55.35
2019-05-01T21:31:07.387Z,52.23
2019-05-01T21:33:40.791Z,52.97
2019-05-01T21:36:09.114Z,49.43
2019-05-01T21:38:40.550Z,50.97
2019-05-01T21:41:12.194Z,50.33
2019-05-01T21:43:42.513Z,49.83
2019-05-01T21:46:12.551Z,49.63
2019-05-01T21:48:43.562Z,55.27
2019-05-01T21:51:12.633Z,47.43
2019-05-01T21:53:46.410Z,55.80
2019-05-01T21:56:15.457Z,55.00
2019-05-01T21:58:45.254Z,51.27
2019-05-01T22:01:14.087Z,54.90
2019-05-01T22:03:42.572Z,55.17
2019-05-01T22:06:15.224Z,56.10
2019-05-01T22:08:41.578Z,56.27
2019-05-01T22:11:10.676Z,53.00
2019-05-01T22:13:39.235Z,52.70
2019-05-01T22:16:12.258Z,53.60
2019-05-01T22:18:45.543Z,55.53
2019-05-01T22:21:21.697Z,58.92
2019-05-01T22:24:00.916Z,56.88
2019-05-01T22:26:31.081Z,58.50
2019-05-01T22:29:01.503Z,58.17
2019-05-01T22:34:24.446Z,61.53
2019-05-01T22:36:53.057Z,60.48
2019-05-01T22:39:24.550Z,60.53
2019-05-01T22:41:54.307Z,54.37
2019-05-01T22:44:23.721Z,58.70
2019-05-01T22:46:52.279Z,59.57
2019-05-01T22:49:22.321Z,62.07
2019-05-01T22:51:53.819Z,62.40
2019-05-01T22:54:22.466Z,61.40
2019-05-01T22:56:53.785Z,61.77
2019-05-01T22:59:22.247Z,63.37
2019-05-01T23:01:53.061Z,62.27
2019-05-01T23:04:25.419Z,66.83
2019-05-01T23:06:54.197Z,64.13
2019-05-01T23:09:27.823Z,61.70
2019-05-01T23:11:53.485Z,64.10
2019-05-01T23:14:22.627Z,64.85
2019-05-01T23:17:09.476Z,63.27
2019-05-01T23:19:39.033Z,68.85
2019-05-01T23:22:07.601Z,58.30
2019-05-01T23:24:37.373Z,52.60
2019-05-01T23:27:05.880Z,62.50
2019-05-01T23:29:34.482Z,62.67
2019-05-01T23:32:03.189Z,58.08
2019-05-01T23:34:32.669Z,69.70
2019-05-01T23:37:01.151Z,62.13
2019-05-01T23:39:39.727Z,56.77
2019-05-01T23:42:02.590Z,57.13
2019-05-01T23:44:38.216Z,59.37
2019-05-01T23:47:05.626Z,60.50
2019-05-01T23:49:34.126Z,55.58
2019-05-01T23:52:05.769Z,64.87
2019-05-01T23:54:35.236Z,63.20
2019-05-01T23:57:06.632Z,66.37
2019-05-01T23:59:35.085Z,59.55
